Time;durP1;ratioP1;P1;durP2;ratioP2;P2;SDS_P1;SDS_P2;PMS_P1;PMS_P2;Temp;Humidity;BMP_temperature;BMP_pressure;BME280_temperature;BME280_humidity;BME280_pressure;Samples;Min_cycle;Max_cycle;Signal;HPM_P1;HPM_P2
2022/10/02 00:00:39;;;;;;;5.07;2.10;;;;;;;;;;13031175;22;20037;-82
2022/10/02 00:05:51;;;;;;;6.75;2.97;;;;;;;;;;12954838;22;20529;-77
2022/10/02 00:10:53;;;;;;;7.63;2.28;;;;;;;;;;12957549;22;20004;-77
2022/10/02 00:15:55;;;;;;;7.80;2.47;;;;;;;;;;12953389;22;20697;-77
2022/10/02 00:21:07;;;;;;;8.60;3.13;;;;;;;;;;12999169;22;20031;-81
2022/10/02 00:26:13;;;;;;;8.25;2.80;;;;;;;;;;12995379;22;20038;-80
2022/10/02 00:31:25;;;;;;;4.28;2.28;;;;;;;;;;13043277;22;20018;-77
2022/10/02 00:36:45;;;;;;;5.30;2.70;;;;;;;;;;13044208;22;20023;-81
2022/10/02 00:42:04;;;;;;;5.88;2.90;;;;;;;;;;13044710;22;20030;-77
2022/10/02 00:47:15;;;;;;;5.35;2.83;;;;;;;;;;12988051;22;20015;-78
2022/10/02 00:52:16;;;;;;;7.00;2.70;;;;;;;;;;12981162;22;20016;-78
2022/10/02 00:57:17;;;;;;;7.68;2.92;;;;;;;;;;12977905;22;20019;-77
2022/10/02 01:02:30;;;;;;;6.45;3.75;;;;;;;;;;12977611;22;20023;-77
2022/10/02 01:07:33;;;;;;;9.48;3.17;;;;;;;;;;12949910;22;20095;-77
2022/10/02 01:12:36;;;;;;;4.32;2.78;;;;;;;;;;12977366;22;20042;-76
2022/10/02 01:17:37;;;;;;;7.68;3.47;;;;;;;;;;12976036;22;20102;-78
2022/10/02 01:22:49;;;;;;;4.45;3.45;;;;;;;;;;12978161;22;20425;-79
2022/10/02 01:27:51;;;;;;;5.60;2.67;;;;;;;;;;12980781;22;20015;-79
2022/10/02 01:32:55;;;;;;;3.40;2.60;;;;;;;;;;12982023;22;20011;-78
2022/10/02 01:37:55;;;;;;;;;;;;;;;;;;12980476;22;20019;-79
2022/10/02 01:42:58;;;;;;;9.37;4.03;;;;;;;;;;12980638;22;20012;-79
2022/10/02 01:48:10;;;;;;;5.60;3.42;;;;;;;;;;12979406;22;20016;-78
2022/10/02 01:53:18;;;;;;;5.68;3.22;;;;;;;;;;12981402;22;20023;-77
2022/10/02 01:58:28;;;;;;;4.28;3.20;;;;;;;;;;12954260;22;20003;-83
2022/10/02 02:03:56;;;;;;;6.10;3.63;;;;;;;;;;12956372;22;20011;-81
2022/10/02 02:09:03;;;;;;;8.25;3.63;;;;;;;;;;12924869;22;20109;-77
2022/10/02 02:14:19;;;;;;;5.90;3.20;;;;;;;;;;12979683;22;20327;-79
2022/10/02 02:19:23;;;;;;;6.95;3.80;;;;;;;;;;12981520;22;20015;-80
2022/10/02 02:24:35;;;;;;;5.05;3.20;;;;;;;;;;12981643;22;20019;-79
2022/10/02 02:29:36;;;;;;;5.30;3.70;;;;;;;;;;12978959;22;20019;-80
2022/10/02 02:34:38;;;;;;;5.63;3.45;;;;;;;;;;12927846;22;20447;-79
2022/10/02 02:39:48;;;;;;;8.52;3.53;;;;;;;;;;12956711;22;20015;-81
2022/10/02 02:44:56;;;;;;;9.27;4.40;;;;;;;;;;12953015;22;20066;-80
2022/10/02 02:49:58;;;;;;;4.63;3.70;;;;;;;;;;12977940;22;20019;-79
2022/10/02 02:55:09;;;;;;;4.97;3.50;;;;;;;;;;12991957;22;20024;-78
2022/10/02 03:00:13;;;;;;;6.05;3.47;;;;;;;;;;13027181;22;19995;-78
2022/10/02 03:05:35;;;;;;;5.80;4.00;;;;;;;;;;13017588;22;20008;-78
2022/10/02 03:10:55;;;;;;;5.43;3.70;;;;;;;;;;12994101;22;20106;-76
2022/10/02 03:16:02;;;;;;;6.57;3.50;;;;;;;;;;12980654;22;20270;-81
2022/10/02 03:21:13;;;;;;;8.07;3.85;;;;;;;;;;13009027;22;20216;-81
2022/10/02 03:26:20;;;;;;;5.68;3.80;;;;;;;;;;13035301;22;20026;-80
2022/10/02 03:31:22;;;;;;;6.38;4.03;;;;;;;;;;12976512;22;20022;-77
2022/10/02 03:36:24;;;;;;;4.88;3.47;;;;;;;;;;12982596;22;20375;-77
2022/10/02 03:41:25;;;;;;;6.63;4.15;;;;;;;;;;12952916;22;20427;-81
2022/10/02 03:46:26;;;;;;;6.60;3.92;;;;;;;;;;12979629;22;20012;-78
2022/10/02 03:51:26;;;;;;;10.63;5.20;;;;;;;;;;12950804;22;20070;-78
2022/10/02 03:56:39;;;;;;;7.45;4.85;;;;;;;;;;12951503;22;20278;-78
2022/10/02 04:01:41;;;;;;;6.72;4.18;;;;;;;;;;12977073;22;20433;-78
2022/10/02 04:06:45;;;;;;;9.55;4.20;;;;;;;;;;12978795;22;20016;-79
2022/10/02 04:11:48;;;;;;;6.20;3.85;;;;;;;;;;12978584;22;20022;-79
2022/10/02 04:17:02;;;;;;;5.05;3.90;;;;;;;;;;12976536;22;20427;-79
2022/10/02 04:22:18;;;;;;;6.63;3.72;;;;;;;;;;12977435;22;20038;-78
2022/10/02 04:27:30;;;;;;;4.72;3.58;;;;;;;;;;12976418;22;20042;-78
2022/10/02 04:32:34;;;;;;;6.10;3.87;;;;;;;;;;12977239;22;20011;-79
2022/10/02 04:37:34;;;;;;;;;;;;;;;;;;12978229;22;20035;-78
2022/10/02 04:42:40;;;;;;;6.13;3.70;;;;;;;;;;12976761;22;20391;-77
2022/10/02 04:48:00;;;;;;;4.30;3.30;;;;;;;;;;12977051;22;20496;-77
2022/10/02 04:53:11;;;;;;;3.88;2.90;;;;;;;;;;12978100;22;20142;-76
2022/10/02 04:58:27;;;;;;;5.47;2.92;;;;;;;;;;12976944;22;20016;-76
2022/10/02 05:03:33;;;;;;;3.40;2.47;;;;;;;;;;12977803;22;20023;-78
2022/10/02 05:08:42;;;;;;;5.60;2.83;;;;;;;;;;12958812;22;20073;-79
2022/10/02 05:13:51;;;;;;;5.60;2.85;;;;;;;;;;13025482;22;20234;-79
2022/10/02 05:19:20;;;;;;;4.35;2.70;;;;;;;;;;12981167;22;20061;-81
2022/10/02 05:24:26;;;;;;;7.32;2.92;;;;;;;;;;12961264;22;20036;-79
2022/10/02 05:29:27;;;;;;;7.80;3.45;;;;;;;;;;12983648;22;20016;-78
2022/10/02 05:34:46;;;;;;;5.57;3.00;;;;;;;;;;13038450;22;20015;-82
2022/10/02 05:40:02;;;;;;;4.15;2.47;;;;;;;;;;13048211;22;20238;-82
2022/10/02 05:45:05;;;;;;;7.13;3.75;;;;;;;;;;13048244;22;19995;-81
2022/10/02 05:50:12;;;;;;;5.97;3.15;;;;;;;;;;13007040;22;20060;-82
2022/10/02 06:00:55;;;;;;;5.70;3.25;;;;;;;;;;12987129;22;20015;-78
2022/10/02 06:05:59;;;;;;;4.80;2.88;;;;;;;;;;12955200;22;20027;-77
2022/10/02 06:11:05;;;;;;;7.22;3.25;;;;;;;;;;12984232;22;20000;-77
2022/10/02 06:16:18;;;;;;;7.82;3.38;;;;;;;;;;12966733;22;20106;-78
2022/10/02 06:21:25;;;;;;;9.80;3.45;;;;;;;;;;13008254;22;20055;-80
2022/10/02 06:26:38;;;;;;;5.32;3.38;;;;;;;;;;12997075;22;20008;-78
2022/10/02 06:31:57;;;;;;;9.60;5.50;;;;;;;;;;12959788;22;20011;-75
2022/10/02 06:37:04;;;;;;;7.43;3.97;;;;;;;;;;12993265;22;20015;-77
2022/10/02 06:42:18;;;;;;;6.35;2.97;;;;;;;;;;12973879;22;20019;-80
2022/10/02 06:47:34;;;;;;;6.72;3.83;;;;;;;;;;12983159;22;20078;-77
2022/10/02 06:53:11;;;;;;;5.75;3.20;;;;;;;;;;12977465;22;20015;-78
2022/10/02 06:58:18;;;;;;;8.80;3.38;;;;;;;;;;12978224;22;20550;-78
2022/10/02 07:03:29;;;;;;;5.18;2.95;;;;;;;;;;12978193;22;20079;-79
2022/10/02 07:08:48;;;;;;;12.10;3.95;;;;;;;;;;12951040;22;20010;-76
2022/10/02 07:13:49;;;;;;;7.13;4.10;;;;;;;;;;12978793;22;20265;-78
2022/10/02 07:19:04;;;;;;;5.72;2.85;;;;;;;;;;12979505;22;20027;-81
2022/10/02 07:24:16;;;;;;;5.35;2.92;;;;;;;;;;12979894;22;20015;-81
2022/10/02 07:29:21;;;;;;;6.13;2.88;;;;;;;;;;12952231;22;20024;-81
2022/10/02 07:34:31;;;;;;;6.50;2.58;;;;;;;;;;12979295;22;20073;-78
2022/10/02 07:39:51;;;;;;;9.07;2.65;;;;;;;;;;12978780;22;20019;-79
2022/10/02 07:44:53;;;;;;;5.75;2.50;;;;;;;;;;12978686;22;20016;-77
2022/10/02 07:49:58;;;;;;;6.15;2.42;;;;;;;;;;12978514;22;20012;-77
2022/10/02 07:55:01;;;;;;;4.55;2.60;;;;;;;;;;12948902;22;20031;-77
2022/10/02 08:00:07;;;;;;;6.28;2.63;;;;;;;;;;12978591;22;20077;-79
2022/10/02 08:05:22;;;;;;;4.32;2.25;;;;;;;;;;12986515;22;20007;-77
2022/10/02 08:10:27;;;;;;;7.35;2.70;;;;;;;;;;13043819;22;19992;-81
2022/10/02 08:15:32;;;;;;;7.82;3.40;;;;;;;;;;13019086;22;21042;-77
2022/10/02 08:20:35;;;;;;;4.72;2.22;;;;;;;;;;13044708;22;20018;-76
2022/10/02 08:25:57;;;;;;;7.30;2.92;;;;;;;;;;12969535;22;20015;-80
2022/10/02 08:30:59;;;;;;;7.35;2.60;;;;;;;;;;12917404;22;20028;-77
2022/10/02 08:36:18;;;;;;;5.90;3.20;;;;;;;;;;12948361;22;20111;-76
2022/10/02 08:41:42;;;;;;;4.82;2.30;;;;;;;;;;12976302;22;20376;-78
2022/10/02 08:47:01;;;;;;;6.18;2.60;;;;;;;;;;12978164;22;20012;-78
2022/10/02 08:52:21;;;;;;;6.53;3.45;;;;;;;;;;12977765;22;20016;-79
2022/10/02 08:57:39;;;;;;;6.13;2.88;;;;;;;;;;12986066;22;20129;-77
2022/10/02 09:03:04;;;;;;;4.68;2.80;;;;;;;;;;12981827;22;20483;-80
2022/10/02 09:08:11;;;;;;;5.20;2.67;;;;;;;;;;12955471;22;20015;-80
2022/10/02 09:13:14;;;;;;;6.30;3.33;;;;;;;;;;13018765;22;20043;-85
2022/10/02 09:18:24;;;;;;;4.45;2.85;;;;;;;;;;12999113;22;20027;-81
2022/10/02 09:23:44;;;;;;;6.63;3.05;;;;;;;;;;13007612;22;20027;-82
2022/10/02 09:28:45;;;;;;;4.72;2.53;;;;;;;;;;12959168;22;20069;-82
2022/10/02 09:33:59;;;;;;;5.22;2.70;;;;;;;;;;12954005;22;20333;-81
2022/10/02 09:39:23;;;;;;;6.32;2.60;;;;;;;;;;12983147;22;20038;-79
2022/10/02 09:44:50;;;;;;;5.70;2.70;;;;;;;;;;12981969;22;20343;-76
2022/10/02 09:50:09;;;;;;;5.68;2.63;;;;;;;;;;12978984;22;20090;-77
2022/10/02 09:55:34;;;;;;;9.73;6.07;;;;;;;;;;12979941;22;20023;-78
2022/10/02 10:01:07;;;;;;;6.18;3.25;;;;;;;;;;12979702;22;20007;-80
2022/10/02 10:06:10;;;;;;;6.00;3.42;;;;;;;;;;12914203;22;20015;-81
2022/10/02 10:11:11;;;;;;;;;;;;;;;;;;12982623;22;20011;-80
2022/10/02 10:16:31;;;;;;;7.93;3.45;;;;;;;;;;12955904;22;19926;-81
2022/10/02 10:21:50;;;;;;;6.55;3.33;;;;;;;;;;12982908;22;20015;-80
2022/10/02 10:26:56;;;;;;;5.07;3.00;;;;;;;;;;12955098;22;20019;-79
2022/10/02 10:32:16;;;;;;;5.63;3.70;;;;;;;;;;12985859;22;20065;-80
2022/10/02 10:42:38;;;;;;;5.85;3.20;;;;;;;;;;13006080;22;20055;-82
2022/10/02 10:47:47;;;;;;;6.25;3.38;;;;;;;;;;12985447;22;20091;-80
2022/10/02 10:53:06;;;;;;;3.72;3.10;;;;;;;;;;13008122;22;20010;-79
2022/10/02 10:58:20;;;;;;;7.78;4.03;;;;;;;;;;12989174;22;20016;-80
2022/10/02 11:03:41;;;;;;;15.05;9.02;;;;;;;;;;12985778;22;20448;-81
2022/10/02 11:08:53;;;;;;;5.68;4.20;;;;;;;;;;12994224;22;20363;-83
2022/10/02 11:14:19;;;;;;;5.53;3.57;;;;;;;;;;13000755;22;20094;-82
2022/10/02 11:19:30;;;;;;;5.72;3.75;;;;;;;;;;12943897;22;20082;-79
2022/10/02 11:24:49;;;;;;;4.13;3.38;;;;;;;;;;13030540;22;19991;-83
2022/10/02 11:29:53;;;;;;;6.07;3.83;;;;;;;;;;13006885;22;20003;-81
2022/10/02 11:35:02;;;;;;;11.82;4.57;;;;;;;;;;13029093;22;20219;-81
2022/10/02 11:40:12;;;;;;;13.68;5.45;;;;;;;;;;13018680;22;20053;-82
2022/10/02 11:45:29;;;;;;;20.08;11.20;;;;;;;;;;12989301;22;20201;-79
2022/10/02 11:50:49;;;;;;;8.80;4.85;;;;;;;;;;12981098;22;20007;-78
2022/10/02 11:56:13;;;;;;;6.78;3.80;;;;;;;;;;12995412;22;20014;-84
2022/10/02 12:01:21;;;;;;;5.05;3.30;;;;;;;;;;12937406;22;20058;-81
2022/10/02 12:06:41;;;;;;;3.88;3.40;;;;;;;;;;12951468;22;20022;-78
2022/10/02 12:12:05;;;;;;;5.00;3.40;;;;;;;;;;12977498;22;20015;-79
2022/10/02 12:17:27;;;;;;;3.88;3.00;;;;;;;;;;12981568;22;20341;-82
2022/10/02 12:28:03;;;;;;;4.63;3.25;;;;;;;;;;12978746;22;20340;-78
2022/10/02 12:33:07;;;;;;;9.43;5.72;;;;;;;;;;12952634;22;20028;-81
2022/10/02 12:38:10;;;;;;;3.75;2.97;;;;;;;;;;12976849;22;20807;-81
2022/10/02 12:43:39;;;;;;;4.90;3.13;;;;;;;;;;12982542;22;20015;-84
2022/10/02 12:48:46;;;;;;;4.88;3.17;;;;;;;;;;12981951;22;20024;-79
2022/10/02 12:54:10;;;;;;;3.47;2.60;;;;;;;;;;12977359;22;20073;-78
2022/10/02 12:59:18;;;;;;;2.70;2.25;;;;;;;;;;12919964;22;20023;-77
2022/10/02 13:04:37;;;;;;;3.13;2.10;;;;;;;;;;12982108;22;20008;-82
2022/10/02 13:09:47;;;;;;;2.20;2.00;;;;;;;;;;13030476;22;20037;-80
2022/10/02 13:15:08;;;;;;;2.30;1.73;;;;;;;;;;13001817;22;20027;-78
2022/10/02 13:20:13;;;;;;;1.65;1.55;;;;;;;;;;12963372;22;20019;-78
2022/10/02 13:25:30;;;;;;;3.58;1.70;;;;;;;;;;13006666;22;20067;-79
2022/10/02 13:30:39;;;;;;;4.40;2.40;;;;;;;;;;13012589;22;20075;-81
2022/10/02 13:35:52;;;;;;;2.55;1.98;;;;;;;;;;13026168;22;20055;-84
2022/10/02 13:40:52;;;;;;;6.57;3.85;;;;;;;;;;12952144;22;20494;-76
2022/10/02 13:45:52;;;;;;;1.90;1.17;;;;;;;;;;12980145;22;20146;-78
2022/10/02 13:51:07;;;;;;;2.80;1.67;;;;;;;;;;12953611;22;20011;-78
2022/10/02 13:56:16;;;;;;;4.60;3.22;;;;;;;;;;12977378;22;20336;-79
2022/10/02 14:01:17;;;;;;;1.77;1.60;;;;;;;;;;12979372;22;20011;-80
2022/10/02 14:06:36;;;;;;;2.97;2.07;;;;;;;;;;12954454;22;20054;-81
2022/10/02 14:11:37;;;;;;;1.95;1.42;;;;;;;;;;12982486;22;20011;-78
2022/10/02 14:16:54;;;;;;;1.88;1.45;;;;;;;;;;12959129;22;20024;-80
2022/10/02 14:21:54;;;;;;;3.20;1.65;;;;;;;;;;12989395;22;20028;-82
2022/10/02 14:27:14;;;;;;;2.00;1.30;;;;;;;;;;12984489;22;20033;-81
2022/10/02 14:32:16;;;;;;;2.38;1.52;;;;;;;;;;12929718;22;20039;-82
2022/10/02 14:37:25;;;;;;;2.97;1.23;;;;;;;;;;12978468;22;20028;-79
2022/10/02 14:42:36;;;;;;;1.10;1.00;;;;;;;;;;12980522;22;20015;-80
2022/10/02 14:48:03;;;;;;;1.52;1.25;;;;;;;;;;12979436;22;20011;-81
2022/10/02 14:53:16;;;;;;;1.52;1.40;;;;;;;;;;12981556;22;20039;-81
2022/10/02 14:58:21;;;;;;;1.80;1.50;;;;;;;;;;12981380;22;20066;-80
2022/10/02 15:03:27;;;;;;;1.90;1.10;;;;;;;;;;12979077;22;20015;-80
2022/10/02 15:08:38;;;;;;;1.77;1.27;;;;;;;;;;12976900;22;20402;-78
2022/10/02 15:13:44;;;;;;;1.80;1.33;;;;;;;;;;12978014;22;20023;-79
2022/10/02 15:19:08;;;;;;;1.40;1.10;;;;;;;;;;12980945;22;20019;-82
2022/10/02 15:24:28;;;;;;;1.98;1.15;;;;;;;;;;12841547;22;20042;-79
2022/10/02 15:29:48;;;;;;;1.52;1.35;;;;;;;;;;12996865;22;20004;-81
2022/10/02 15:34:58;;;;;;;1.40;1.25;;;;;;;;;;13020072;22;20022;-78
2022/10/02 15:40:19;;;;;;;40.50;23.58;;;;;;;;;;12962604;22;20016;-74
2022/10/02 15:45:29;;;;;;;4.63;1.90;;;;;;;;;;13010234;22;19996;-79
2022/10/02 15:50:47;;;;;;;2.88;1.63;;;;;;;;;;13044255;22;20015;-79
2022/10/02 15:56:10;;;;;;;2.90;1.52;;;;;;;;;;13041289;22;20329;-79
2022/10/02 16:01:10;;;;;;;1.90;1.48;;;;;;;;;;13031277;22;20011;-80
2022/10/02 16:06:20;;;;;;;1.90;1.58;;;;;;;;;;12982029;22;20448;-80
2022/10/02 16:11:23;;;;;;;1.98;1.38;;;;;;;;;;12955407;22;20022;-79
2022/10/02 16:16:33;;;;;;;1.98;1.63;;;;;;;;;;12928338;22;20119;-77
2022/10/02 16:21:54;;;;;;;2.00;1.80;;;;;;;;;;12995345;22;20019;-80
2022/10/02 16:27:11;;;;;;;3.05;2.22;;;;;;;;;;12980288;22;20414;-82
2022/10/02 16:32:24;;;;;;;3.25;2.35;;;;;;;;;;12982951;22;20436;-78
2022/10/02 16:37:48;;;;;;;2.60;2.20;;;;;;;;;;12978131;22;20019;-82
2022/10/02 16:43:11;;;;;;;2.20;1.90;;;;;;;;;;12952614;22;20051;-79
2022/10/02 16:48:15;;;;;;;3.88;2.72;;;;;;;;;;12951274;22;20012;-78
2022/10/02 16:53:29;;;;;;;3.13;2.25;;;;;;;;;;12977861;22;20014;-78
2022/10/02 16:58:50;;;;;;;2.92;2.45;;;;;;;;;;12982335;22;20015;-82
2022/10/02 17:03:57;;;;;;;2.88;2.25;;;;;;;;;;12921321;22;20020;-80
2022/10/02 17:09:04;;;;;;;2.40;2.20;;;;;;;;;;12981134;22;20011;-84
2022/10/02 17:14:32;;;;;;;3.90;2.70;;;;;;;;;;12994075;22;20028;-82
2022/10/02 17:20:06;;;;;;;3.22;2.45;;;;;;;;;;13039933;22;20015;-80
2022/10/02 17:25:52;;;;;;;3.08;2.70;;;;;;;;;;12996011;22;20071;-84
2022/10/02 17:31:02;;;;;;;3.37;2.70;;;;;;;;;;12806830;22;20008;-80
2022/10/02 17:42:37;;;;;;;;;;;;;;;;;;;;;
2022/10/02 17:59:47;;;;;;;5.30;4.45;;;;;;;;;;12879302;22;20007;-84
2022/10/02 18:05:49;;;;;;;4.43;3.47;;;;;;;;;;13036715;22;20026;-80
2022/10/02 18:17:25;;;;;;;4.43;4.03;;;;;;;;;;13044208;22;20008;-82
2022/10/02 18:22:42;;;;;;;4.75;4.20;;;;;;;;;;13045905;22;20011;-79
2022/10/02 18:27:54;;;;;;;5.97;3.80;;;;;;;;;;13034858;22;20383;-80
2022/10/02 18:33:24;;;;;;;4.68;3.92;;;;;;;;;;12959181;22;20012;-79
2022/10/02 18:38:44;;;;;;;5.35;4.05;;;;;;;;;;13015244;22;20023;-80
2022/10/02 18:43:50;;;;;;;4.25;3.20;;;;;;;;;;12983438;22;20722;-80
2022/10/02 18:49:12;;;;;;;4.50;3.55;;;;;;;;;;12983266;22;20037;-80
2022/10/02 18:54:23;;;;;;;4.22;3.13;;;;;;;;;;12985560;22;20008;-80
2022/10/02 18:59:43;;;;;;;4.72;3.38;;;;;;;;;;12960931;22;20087;-78
2022/10/02 19:04:50;;;;;;;4.95;4.45;;;;;;;;;;12984414;22;20335;-79
2022/10/02 19:10:10;;;;;;;8.68;6.18;;;;;;;;;;12957369;22;20027;-80
2022/10/02 19:15:30;;;;;;;5.72;4.60;;;;;;;;;;12929600;22;20169;-82
2022/10/02 19:20:35;;;;;;;5.68;4.75;;;;;;;;;;12918644;22;20090;-78
2022/10/02 19:25:42;;;;;;;6.43;5.13;;;;;;;;;;12981358;22;20332;-79
2022/10/02 19:30:46;;;;;;;9.70;7.60;;;;;;;;;;12989847;22;20012;-80
2022/10/02 19:35:48;;;;;;;7.72;5.70;;;;;;;;;;12959900;22;20027;-82
2022/10/02 19:40:51;;;;;;;9.02;6.07;;;;;;;;;;12965009;22;20027;-81
2022/10/02 19:45:55;;;;;;;8.05;6.55;;;;;;;;;;12964932;22;20023;-76
2022/10/02 19:51:13;;;;;;;10.45;7.80;;;;;;;;;;12960217;22;20412;-79
2022/10/02 19:56:16;;;;;;;8.30;6.10;;;;;;;;;;12926935;22;20026;-77
2022/10/02 20:01:23;;;;;;;6.63;5.47;;;;;;;;;;12954710;22;20012;-76
2022/10/02 20:06:25;;;;;;;8.73;6.90;;;;;;;;;;12998302;22;20274;-77
2022/10/02 20:11:42;;;;;;;8.40;6.10;;;;;;;;;;12950653;22;20521;-75
2022/10/02 20:22:06;;;;;;;8.27;6.82;;;;;;;;;;12986133;22;20380;-81
2022/10/02 20:27:20;;;;;;;15.10;6.80;;;;;;;;;;12955858;22;20435;-80
2022/10/02 20:32:36;;;;;;;10.07;6.57;;;;;;;;;;12980453;22;20526;-80
2022/10/02 20:37:40;;;;;;;9.88;6.80;;;;;;;;;;12955831;22;20039;-78
2022/10/02 20:42:49;;;;;;;10.10;7.35;;;;;;;;;;13020589;22;20008;-81
2022/10/02 20:47:56;;;;;;;10.98;7.13;;;;;;;;;;13016321;22;20019;-78
2022/10/02 20:53:15;;;;;;;9.02;6.57;;;;;;;;;;13046502;22;19998;-86
2022/10/02 20:58:48;;;;;;;10.90;7.75;;;;;;;;;;13026476;22;20023;-82
2022/10/02 21:04:08;;;;;;;8.32;6.38;;;;;;;;;;12900203;22;20026;-80
2022/10/02 21:09:11;;;;;;;7.63;6.32;;;;;;;;;;12983833;22;20003;-80
2022/10/02 21:14:30;;;;;;;8.25;5.97;;;;;;;;;;12959199;22;20440;-79
2022/10/02 21:19:38;;;;;;;11.93;6.72;;;;;;;;;;12962522;22;20014;-77
2022/10/02 21:24:46;;;;;;;26.05;7.30;;;;;;;;;;13017726;22;20008;-78
2022/10/02 21:29:52;;;;;;;7.78;6.43;;;;;;;;;;12979974;22;20122;-79
2022/10/02 21:35:07;;;;;;;10.85;6.75;;;;;;;;;;12951861;22;20333;-80
2022/10/02 21:40:23;;;;;;;7.97;6.00;;;;;;;;;;12982117;22;20019;-80
2022/10/02 21:45:44;;;;;;;8.13;6.60;;;;;;;;;;12951774;22;20008;-80
2022/10/02 21:51:04;;;;;;;10.95;7.35;;;;;;;;;;12983234;22;20059;-82
2022/10/02 21:56:23;;;;;;;14.27;8.13;;;;;;;;;;12990615;22;20668;-82
2022/10/02 22:01:41;;;;;;;12.50;8.50;;;;;;;;;;12988601;22;20019;-81
2022/10/02 22:07:01;;;;;;;9.23;7.07;;;;;;;;;;12954246;22;20746;-78
2022/10/02 22:12:04;;;;;;;8.48;6.50;;;;;;;;;;12984898;22;20053;-79
2022/10/02 22:17:17;;;;;;;14.65;8.48;;;;;;;;;;12985985;22;20499;-80
2022/10/02 22:22:37;;;;;;;10.60;7.65;;;;;;;;;;12986061;22;20012;-79
2022/10/02 22:27:48;;;;;;;11.40;7.90;;;;;;;;;;12984595;22;20015;-79
2022/10/02 22:33:10;;;;;;;14.55;8.65;;;;;;;;;;12984004;22;20107;-78
2022/10/02 22:38:39;;;;;;;11.85;7.20;;;;;;;;;;12979929;22;20023;-80
2022/10/02 22:43:45;;;;;;;15.20;9.70;;;;;;;;;;13016595;22;20004;-77
2022/10/02 22:48:51;;;;;;;13.10;8.18;;;;;;;;;;13016501;22;20012;-81
2022/10/02 22:54:01;;;;;;;14.40;8.57;;;;;;;;;;13008694;22;20019;-78
2022/10/02 22:59:13;;;;;;;12.70;8.10;;;;;;;;;;12986402;22;20023;-81
2022/10/02 23:04:33;;;;;;;13.97;9.13;;;;;;;;;;12959233;22;20011;-78
2022/10/02 23:09:37;;;;;;;14.60;8.90;;;;;;;;;;13010609;22;20034;-77
2022/10/02 23:14:44;;;;;;;12.93;8.32;;;;;;;;;;13017114;22;20050;-82
2022/10/02 23:19:48;;;;;;;13.43;9.50;;;;;;;;;;13045467;22;20019;-80
2022/10/02 23:25:02;;;;;;;18.35;10.73;;;;;;;;;;13017263;22;20016;-80
2022/10/02 23:30:10;;;;;;;20.08;10.55;;;;;;;;;;13041926;22;20011;-79
2022/10/02 23:35:13;;;;;;;22.33;12.38;;;;;;;;;;12957111;22;20523;-81
2022/10/02 23:41:35;;;;;;;14.70;9.63;;;;;;;;;;12981480;22;20377;-81
2022/10/02 23:45:46;;;;;;;12.82;8.40;;;;;;;;;;12984612;22;20038;-82
2022/10/02 23:51:01;;;;;;;12.57;8.82;;;;;;;;;;12954064;22;20424;-79
2022/10/02 23:56:11;;;;;;;12.57;8.85;;;;;;;;;;12949733;22;20374;-77
